createdAt,value
2018-06-01T00:00:14.816Z,90.48
2018-06-01T00:01:14.994Z,90.20
2018-06-01T00:02:15.165Z,90.68
2018-06-01T00:03:15.344Z,90.64
2018-06-01T00:04:15.519Z,90.68
2018-06-01T00:05:15.696Z,90.78
2018-06-01T00:06:15.878Z,90.58
2018-06-01T00:07:16.054Z,90.68
2018-06-01T00:08:16.234Z,90.83
2018-06-01T00:09:16.417Z,91.02
2018-06-01T00:10:16.601Z,90.83
2018-06-01T00:11:16.780Z,90.83
2018-06-01T00:12:16.964Z,91.31
2018-06-01T00:13:17.145Z,91.21
2018-06-01T00:14:17.327Z,91.31
2018-06-01T00:15:17.500Z,91.69
2018-06-01T00:16:17.678Z,92.47
2018-06-01T00:17:17.851Z,92.27
2018-06-01T00:18:18.033Z,92.27
2018-06-01T00:19:18.207Z,92.56
2018-06-01T00:20:18.391Z,92.47
2018-06-01T00:21:18.571Z,92.37
2018-06-01T00:22:18.753Z,92.13
2018-06-01T00:23:18.928Z,92.37
2018-06-01T00:24:19.096Z,92.56
2018-06-01T00:25:19.278Z,92.37
2018-06-01T00:26:19.459Z,92.37
2018-06-01T00:27:19.633Z,92.03
2018-06-01T00:28:19.808Z,92.56
2018-06-01T00:29:19.983Z,92.42
2018-06-01T00:30:20.161Z,92.42
2018-06-01T00:31:20.345Z,92.52
2018-06-01T00:32:20.521Z,93.19
2018-06-01T00:33:20.708Z,92.18
2018-06-01T00:34:20.893Z,92.13
2018-06-01T00:35:21.066Z,91.79
2018-06-01T00:36:21.254Z,92.18
2018-06-01T00:37:21.428Z,92.32
2018-06-01T00:38:21.610Z,92.32
2018-06-01T00:39:21.783Z,92.03
2018-06-01T00:40:21.960Z,92.27
2018-06-01T00:41:22.133Z,92.22
2018-06-01T00:42:22.312Z,93.19
2018-06-01T00:43:22.491Z,92.80
2018-06-01T00:44:22.673Z,93.67
2018-06-01T00:45:22.854Z,93.38
2018-06-01T00:46:23.026Z,92.66
2018-06-01T00:47:23.203Z,92.90
2018-06-01T00:48:23.384Z,92.80
2018-06-01T00:49:23.555Z,93.09
2018-06-01T00:50:23.744Z,92.90
2018-06-01T00:51:23.919Z,93.00
2018-06-01T00:52:24.098Z,93.00
2018-06-01T00:53:24.268Z,92.61
2018-06-01T00:54:24.446Z,92.61
2018-06-01T00:55:24.625Z,92.66
2018-06-01T00:56:24.800Z,92.80
2018-06-01T00:57:24.980Z,93.57
2018-06-01T00:58:25.161Z,93.48
2018-06-01T00:59:25.344Z,93.29
2018-06-01T01:00:25.505Z,93.57
2018-06-01T01:01:25.723Z,93.57
2018-06-01T01:02:25.863Z,93.87
2018-06-01T01:03:26.039Z,93.38
2018-06-01T01:04:26.223Z,93.00
2018-06-01T01:05:26.402Z,93.48
2018-06-01T01:06:26.577Z,93.19
2018-06-01T01:07:26.758Z,93.09
2018-06-01T01:08:26.939Z,93.19
2018-06-01T01:09:27.111Z,93.19
2018-06-01T01:10:27.296Z,93.09
2018-06-01T01:11:27.477Z,93.48
2018-06-01T01:12:27.658Z,93.48
2018-06-01T01:13:27.836Z,93.38
2018-06-01T01:14:28.011Z,93.38
2018-06-01T01:15:28.197Z,93.19
2018-06-01T01:16:28.379Z,94.01
2018-06-01T01:17:28.552Z,93.91
2018-06-01T01:18:28.733Z,93.96
2018-06-01T01:19:28.924Z,93.38
2018-06-01T01:20:29.115Z,93.38
2018-06-01T01:21:29.293Z,92.76
2018-06-01T01:22:29.465Z,93.15
2018-06-01T01:23:29.638Z,93.05
2018-06-01T01:24:29.818Z,93.53
2018-06-01T01:25:30.000Z,93.62
2018-06-01T01:26:30.172Z,93.24
2018-06-01T01:27:30.352Z,93.43
2018-06-01T01:28:30.527Z,93.72
2018-06-01T01:29:30.709Z,93.72
2018-06-01T01:30:30.893Z,93.72
2018-06-01T01:31:31.066Z,94.10
2018-06-01T01:32:31.248Z,93.24
2018-06-01T01:33:31.435Z,94.10
2018-06-01T01:34:31.609Z,93.43
2018-06-01T01:35:31.796Z,93.72
2018-06-01T01:36:31.969Z,93.82
2018-06-01T01:37:32.151Z,92.95
2018-06-01T01:38:32.337Z,93.82
2018-06-01T01:39:32.519Z,93.24
2018-06-01T01:40:32.695Z,93.72
2018-06-01T01:41:32.871Z,93.15
2018-06-01T01:42:33.044Z,93.82
2018-06-01T01:43:33.225Z,92.95
2018-06-01T01:44:33.412Z,93.72
2018-06-01T01:45:33.600Z,93.72
2018-06-01T01:46:33.775Z,94.01
2018-06-01T01:47:33.962Z,92.95
2018-06-01T01:48:34.135Z,93.72
2018-06-01T01:49:34.317Z,93.15
2018-06-01T01:50:34.499Z,92.76
2018-06-01T01:51:34.708Z,93.82
2018-06-01T01:52:34.864Z,93.91
2018-06-01T01:53:35.039Z,93.82
2018-06-01T01:54:35.223Z,93.24
2018-06-01T01:55:35.397Z,93.33
2018-06-01T01:56:35.581Z,92.76
2018-06-01T01:57:35.757Z,93.53
2018-06-01T01:58:35.929Z,93.15
2018-06-01T01:59:36.106Z,93.53
2018-06-01T02:00:36.288Z,92.85
2018-06-01T02:01:36.470Z,92.85
2018-06-01T02:02:36.655Z,92.85
2018-06-01T02:03:36.828Z,93.33
2018-06-01T02:04:37.010Z,92.76
2018-06-01T02:05:37.184Z,92.66
2018-06-01T02:06:37.365Z,93.15
2018-06-01T02:07:37.548Z,92.38
2018-06-01T02:08:37.719Z,92.18
2018-06-01T02:09:37.894Z,92.08
2018-06-01T02:10:38.069Z,92.28
2018-06-01T02:11:38.247Z,91.80
2018-06-01T02:12:38.421Z,91.89
2018-06-01T02:13:38.609Z,92.61
2018-06-01T02:14:38.825Z,92.22
2018-06-01T02:15:38.980Z,91.36
2018-06-01T02:16:39.157Z,91.60
2018-06-01T02:17:39.334Z,91.89
2018-06-01T02:18:39.514Z,92.18
2018-06-01T02:19:39.685Z,92.28
2018-06-01T02:20:39.865Z,92.66
2018-06-01T02:21:40.052Z,93.15
2018-06-01T02:22:40.221Z,92.85
2018-06-01T02:23:40.399Z,93.43
2018-06-01T02:24:40.580Z,93.15
2018-06-01T02:25:40.752Z,92.95
2018-06-01T02:26:40.931Z,93.15
2018-06-01T02:27:41.112Z,92.66
2018-06-01T02:28:41.293Z,93.82
2018-06-01T02:29:41.470Z,92.95
2018-06-01T02:30:41.652Z,92.28
2018-06-01T02:31:41.827Z,92.95
2018-06-01T02:32:42.014Z,92.28
2018-06-01T02:33:42.189Z,92.66
2018-06-01T02:34:42.371Z,92.28
2018-06-01T02:35:42.550Z,92.13
2018-06-01T02:36:42.724Z,92.95
2018-06-01T02:37:42.901Z,92.95
2018-06-01T02:38:43.079Z,92.22
2018-06-01T02:39:43.257Z,92.22
2018-06-01T02:40:43.442Z,92.18
2018-06-01T02:41:43.612Z,92.28
2018-06-01T02:42:43.784Z,92.76
2018-06-01T02:43:43.966Z,92.76
2018-06-01T02:44:44.138Z,93.24
2018-06-01T02:45:44.317Z,93.91
2018-06-01T02:46:44.497Z,92.95
2018-06-01T02:47:44.676Z,93.72
2018-06-01T02:48:44.851Z,93.82
2018-06-01T02:49:45.030Z,93.82
2018-06-01T02:50:45.277Z,94.10
2018-06-01T02:51:45.440Z,93.38
2018-06-01T02:52:45.608Z,92.91
2018-06-01T02:53:45.787Z,94.06
2018-06-01T02:54:45.970Z,93.96
2018-06-01T02:55:46.140Z,93.87
2018-06-01T02:56:46.317Z,93.91
2018-06-01T02:57:46.499Z,93.19
2018-06-01T02:58:46.672Z,93.10
2018-06-01T02:59:46.854Z,93.72
2018-06-01T03:00:47.027Z,93.15
2018-06-01T03:01:47.204Z,92.52
2018-06-01T03:02:47.383Z,93.87
2018-06-01T03:03:47.565Z,93.29
2018-06-01T03:04:47.738Z,93.96
2018-06-01T03:05:47.915Z,94.25
2018-06-01T03:06:48.090Z,94.92
2018-06-01T03:07:48.269Z,94.83
2018-06-01T03:08:48.449Z,94.45
2018-06-01T03:09:48.626Z,94.15
2018-06-01T03:10:48.815Z,93.72
2018-06-01T03:11:48.989Z,93.82
2018-06-01T03:12:49.160Z,94.30
2018-06-01T03:13:49.339Z,94.01
2018-06-01T03:14:49.512Z,93.82
2018-06-01T03:15:49.699Z,94.30
2018-06-01T03:16:49.874Z,93.62
2018-06-01T03:17:50.058Z,93.91
2018-06-01T03:18:50.234Z,94.01
2018-06-01T03:19:50.406Z,94.20
2018-06-01T03:20:50.583Z,93.91
2018-06-01T03:21:50.760Z,93.82
2018-06-01T03:22:50.937Z,93.91
2018-06-01T03:23:51.121Z,92.95
2018-06-01T03:24:51.296Z,93.43
2018-06-01T03:25:51.467Z,93.72
2018-06-01T03:26:51.638Z,93.05
2018-06-01T03:27:51.818Z,93.33
2018-06-01T03:28:51.996Z,93.53
2018-06-01T03:29:52.182Z,93.91
2018-06-01T03:30:52.364Z,94.87
2018-06-01T03:31:52.535Z,94.78
2018-06-01T03:32:52.717Z,95.17
2018-06-01T03:33:52.891Z,95.36
2018-06-01T03:34:53.090Z,94.87
2018-06-01T03:35:53.264Z,94.68
2018-06-01T03:36:53.466Z,94.87
2018-06-01T03:37:53.653Z,95.17
2018-06-01T03:38:53.836Z,95.45
2018-06-01T03:39:54.013Z,96.32
2018-06-01T03:40:54.190Z,96.03
2018-06-01T03:41:54.369Z,96.32
2018-06-01T03:42:54.545Z,96.70
2018-06-01T03:43:54.784Z,95.55
2018-06-01T03:44:54.822Z,95.84
2018-06-01T03:45:55.003Z,96.51
2018-06-01T03:46:55.176Z,96.22
2018-06-01T03:47:55.365Z,96.61
2018-06-01T03:48:55.538Z,96.51
2018-06-01T03:49:55.715Z,96.51
2018-06-01T03:50:55.889Z,96.61
2018-06-01T03:51:56.066Z,96.42
2018-06-01T03:52:56.242Z,96.61
2018-06-01T03:53:56.419Z,96.51
2018-06-01T03:54:56.624Z,96.61
2018-06-01T03:55:56.800Z,96.61
2018-06-01T03:56:56.982Z,96.51
2018-06-01T03:57:57.158Z,96.99
2018-06-01T03:58:57.640Z,97.28
2018-06-01T03:59:57.488Z,97.19
2018-06-01T04:00:57.671Z,97.28
2018-06-01T04:01:57.858Z,96.80
2018-06-01T04:02:58.034Z,96.61
2018-06-01T04:03:58.220Z,96.12
2018-06-01T04:04:58.405Z,96.51
2018-06-01T04:05:58.573Z,96.42
2018-06-01T04:06:58.867Z,96.51
2018-06-01T04:07:58.916Z,96.70
2018-06-01T04:08:59.101Z,97.19
2018-06-01T04:09:59.283Z,96.61
2018-06-01T04:10:59.465Z,96.51
2018-06-01T04:11:59.634Z,96.80
2018-06-01T04:12:59.833Z,96.61
2018-06-01T04:14:00.000Z,96.80
2018-06-01T04:15:00.188Z,96.42
2018-06-01T04:16:00.356Z,96.89
2018-06-01T04:17:00.538Z,97.28
2018-06-01T04:18:00.721Z,97.14
2018-06-01T04:19:00.901Z,97.52
2018-06-01T04:20:01.094Z,97.38
2018-06-01T04:21:01.280Z,97.09
2018-06-01T04:22:01.451Z,97.28
2018-06-01T04:23:01.640Z,97.38
2018-06-01T04:24:01.822Z,97.09
2018-06-01T04:25:02.002Z,97.19
2018-06-01T04:26:02.179Z,97.96
2018-06-01T04:27:02.366Z,97.76
2018-06-01T04:28:02.567Z,97.14
2018-06-01T04:29:02.722Z,97.09
2018-06-01T04:30:02.905Z,97.42
2018-06-01T04:31:03.087Z,96.61
2018-06-01T04:32:03.265Z,96.80
2018-06-01T04:33:03.445Z,97.28
2018-06-01T04:34:03.622Z,97.38
2018-06-01T04:35:04.484Z,97.19
2018-06-01T04:36:03.929Z,97.28
2018-06-01T04:37:04.104Z,97.09
2018-06-01T04:38:04.277Z,97.19
2018-06-01T04:39:04.460Z,97.42
2018-06-01T04:40:04.677Z,97.52
2018-06-01T04:41:04.827Z,97.28
2018-06-01T04:42:04.998Z,96.85
2018-06-01T04:43:05.169Z,97.33
2018-06-01T04:44:05.354Z,96.75
2018-06-01T04:45:05.567Z,96.75
2018-06-01T04:46:05.752Z,96.66
2018-06-01T04:47:05.931Z,96.56
2018-06-01T04:48:06.106Z,96.37
2018-06-01T04:49:06.295Z,96.56
2018-06-01T04:50:06.469Z,96.75
2018-06-01T04:51:06.648Z,95.89
2018-06-01T04:52:06.827Z,95.60
2018-06-01T04:53:07.012Z,95.89
2018-06-01T04:54:07.188Z,95.98
2018-06-01T04:55:07.480Z,95.36
2018-06-01T04:56:07.579Z,96.03
2018-06-01T04:57:07.720Z,95.45
2018-06-01T04:58:07.891Z,95.16
2018-06-01T04:59:08.072Z,94.29
2018-06-01T05:00:08.270Z,93.86
2018-06-01T05:01:08.482Z,94.06
2018-06-01T05:02:08.743Z,92.61
2018-06-01T05:03:08.878Z,93.57
2018-06-01T05:04:08.944Z,92.94
2018-06-01T05:05:09.139Z,93.81
2018-06-01T05:06:09.312Z,93.13
2018-06-01T05:07:09.499Z,92.65
2018-06-01T05:08:09.692Z,93.04
2018-06-01T05:09:09.875Z,92.56
2018-06-01T05:10:10.065Z,93.23
2018-06-01T05:11:10.244Z,92.27
2018-06-01T05:12:10.436Z,92.08
2018-06-01T05:13:10.616Z,92.41
2018-06-01T05:14:10.837Z,93.28
2018-06-01T05:15:11.077Z,93.09
2018-06-01T05:16:11.124Z,93.09
2018-06-01T05:17:11.310Z,93.52
2018-06-01T05:18:11.474Z,93.62
2018-06-01T05:19:11.651Z,94.39
2018-06-01T05:20:11.828Z,94.29
2018-06-01T05:21:12.020Z,93.33
2018-06-01T05:22:14.885Z,94.10
2018-06-01T05:23:16.241Z,93.71
2018-06-01T05:24:13.791Z,93.13
2018-06-01T05:25:15.246Z,92.46
2018-06-01T05:26:12.856Z,91.30
2018-06-01T05:27:13.176Z,91.50
2018-06-01T05:28:13.387Z,92.27
2018-06-01T05:29:13.441Z,92.36
2018-06-01T05:30:13.694Z,93.23
2018-06-01T05:31:13.751Z,93.18
2018-06-01T05:32:13.929Z,92.41
2018-06-01T05:33:14.105Z,92.12
2018-06-01T05:34:14.326Z,90.58
2018-06-01T05:35:14.472Z,90.77
2018-06-01T05:36:14.650Z,90.96
2018-06-01T05:37:14.831Z,90.67
2018-06-01T05:38:15.014Z,91.20
2018-06-01T05:39:15.197Z,92.27
2018-06-01T05:40:15.381Z,92.27
2018-06-01T05:41:15.557Z,92.27
2018-06-01T05:42:15.740Z,93.33
2018-06-01T05:43:15.925Z,94.20
2018-06-01T05:44:16.101Z,93.52
2018-06-01T05:45:16.286Z,93.71
2018-06-01T05:46:16.461Z,93.62
2018-06-01T05:47:16.685Z,94.39
2018-06-01T05:48:16.816Z,92.65
2018-06-01T05:49:16.997Z,92.17
2018-06-01T05:50:17.176Z,92.90
2018-06-01T05:51:17.357Z,92.41
2018-06-01T05:52:17.536Z,92.32
2018-06-01T05:53:17.715Z,92.61
2018-06-01T05:54:17.896Z,93.66
2018-06-01T05:55:18.070Z,91.93
2018-06-01T05:56:18.251Z,91.98
2018-06-01T05:57:18.432Z,91.40
2018-06-01T05:58:18.625Z,92.46
2018-06-01T05:59:18.806Z,91.88
2018-06-01T06:00:18.986Z,91.93
2018-06-01T06:01:19.163Z,91.06
2018-06-01T06:02:19.343Z,89.57
2018-06-01T06:03:19.523Z,89.51
2018-06-01T06:04:19.704Z,89.42
2018-06-01T06:05:19.877Z,89.32
2018-06-01T06:06:20.063Z,89.09
2018-06-01T06:07:20.243Z,89.47
2018-06-01T06:08:20.429Z,89.28
2018-06-01T06:09:20.609Z,89.61
2018-06-01T06:10:20.819Z,89.71
2018-06-01T06:11:21.026Z,89.37
2018-06-01T06:12:21.207Z,89.56
2018-06-01T06:13:21.394Z,88.11
2018-06-01T06:14:21.592Z,85.31
2018-06-01T06:15:21.830Z,85.41
2018-06-01T06:16:21.906Z,85.31
2018-06-01T06:17:22.083Z,85.85
2018-06-01T06:18:22.277Z,86.24
2018-06-01T06:19:22.498Z,88.17
2018-06-01T06:20:22.680Z,88.26
2018-06-01T06:21:22.973Z,88.26
2018-06-01T06:22:23.352Z,87.40
2018-06-01T06:23:24.952Z,87.54
2018-06-01T06:24:25.164Z,88.02
2018-06-01T06:25:28.110Z,89.23
2018-06-01T06:26:25.366Z,88.60
2018-06-01T06:27:24.134Z,88.89
2018-06-01T06:28:24.029Z,88.45
2018-06-01T06:29:24.213Z,88.41
2018-06-01T06:30:24.393Z,89.67
2018-06-01T06:31:24.575Z,89.23
2018-06-01T06:32:24.761Z,89.53
2018-06-01T06:33:24.956Z,90.25
2018-06-01T06:34:25.121Z,90.39
2018-06-01T06:35:25.310Z,90.34
2018-06-01T06:36:25.478Z,90.54
2018-06-01T06:37:25.669Z,91.21
2018-06-01T06:38:25.858Z,91.41
2018-06-01T06:39:31.220Z,92.08
2018-06-01T06:40:29.890Z,91.36
2018-06-01T06:41:30.810Z,90.20
2018-06-01T06:42:28.374Z,91.41
2018-06-01T06:43:29.037Z,89.57
2018-06-01T06:44:28.774Z,87.45
2018-06-01T06:45:28.401Z,85.66
2018-06-01T06:46:30.455Z,85.46
2018-06-01T06:47:28.944Z,86.38
2018-06-01T06:48:28.559Z,85.46
2018-06-01T06:49:28.988Z,85.46
2018-06-01T06:50:28.539Z,85.37
2018-06-01T06:51:29.756Z,85.81
2018-06-01T06:52:28.354Z,86.19
2018-06-01T06:53:29.674Z,87.06
2018-06-01T06:54:29.016Z,87.21
2018-06-01T06:55:29.394Z,87.88
2018-06-01T06:56:29.127Z,88.17
2018-06-01T06:57:29.337Z,87.40
2018-06-01T06:58:29.509Z,88.17
2018-06-01T06:59:29.698Z,88.32
2018-06-01T07:00:29.874Z,88.04
2018-06-01T07:01:30.052Z,89.00
2018-06-01T07:02:30.241Z,88.57
2018-06-01T07:03:30.472Z,89.58
2018-06-01T07:04:30.532Z,89.29
2018-06-01T07:05:30.711Z,89.58
2018-06-01T07:06:30.896Z,88.51
2018-06-01T07:07:31.074Z,88.61
2018-06-01T07:08:31.330Z,88.42
2018-06-01T07:09:31.472Z,87.90
2018-06-01T07:10:31.681Z,88.76
2018-06-01T07:11:31.831Z,89.43
2018-06-01T07:12:32.012Z,90.30
2018-06-01T07:13:32.193Z,89.53
2018-06-01T07:14:32.379Z,90.50
2018-06-01T07:15:32.571Z,90.50
2018-06-01T07:16:32.763Z,89.97
2018-06-01T07:17:32.937Z,91.13
2018-06-01T07:18:33.120Z,91.27
2018-06-01T07:19:34.960Z,91.22
2018-06-01T07:20:33.472Z,91.03
2018-06-01T07:21:33.649Z,90.45
2018-06-01T07:22:33.837Z,91.03
2018-06-01T07:23:34.050Z,90.45
2018-06-01T07:24:34.218Z,90.55
2018-06-01T07:25:34.400Z,91.22
2018-06-01T07:26:34.583Z,91.13
2018-06-01T07:27:34.766Z,90.97
2018-06-01T07:28:34.936Z,89.72
2018-06-01T07:29:35.119Z,89.15
2018-06-01T07:30:35.295Z,89.19
2018-06-01T07:31:35.473Z,88.81
2018-06-01T07:32:35.661Z,88.42
2018-06-01T07:33:35.833Z,88.23
2018-06-01T07:34:36.016Z,87.26
2018-06-01T07:35:36.215Z,88.46
2018-06-01T07:36:36.387Z,87.02
2018-06-01T07:37:36.568Z,87.12
2018-06-01T07:38:36.771Z,87.60
2018-06-01T07:39:36.936Z,87.21
2018-06-01T07:40:37.623Z,87.30
2018-06-01T07:41:37.263Z,85.47
2018-06-01T07:42:37.440Z,86.35
2018-06-01T07:43:37.624Z,86.63
2018-06-01T07:44:37.806Z,86.25
2018-06-01T07:45:37.989Z,86.05
2018-06-01T07:46:40.066Z,86.35
2018-06-01T07:47:38.389Z,87.40
2018-06-01T07:48:38.565Z,86.59
2018-06-01T07:49:38.745Z,86.69
2018-06-01T07:50:38.928Z,86.49
2018-06-01T07:51:39.181Z,86.01
2018-06-01T07:52:39.417Z,86.59
2018-06-01T07:53:40.869Z,87.46
2018-06-01T07:54:40.680Z,86.98
2018-06-01T07:55:40.716Z,87.17
2018-06-01T07:56:40.084Z,87.46
2018-06-01T07:57:40.322Z,87.65
2018-06-01T07:58:40.909Z,87.65
2018-06-01T07:59:40.465Z,88.32
2018-06-01T08:00:40.779Z,87.46
2018-06-01T08:01:41.224Z,86.21
2018-06-01T08:02:42.159Z,87.46
2018-06-01T08:03:41.701Z,86.88
2018-06-01T08:04:42.050Z,86.93
2018-06-01T08:05:43.681Z,87.17
2018-06-01T08:06:41.667Z,87.22
2018-06-01T08:07:41.968Z,87.55
2018-06-01T08:08:41.982Z,87.74
2018-06-01T08:09:42.152Z,87.94
2018-06-01T08:10:42.351Z,88.04
2018-06-01T08:11:42.673Z,87.55
2018-06-01T08:12:43.605Z,86.82
2018-06-01T08:13:44.587Z,86.15
2018-06-01T08:14:43.993Z,86.35
2018-06-01T08:15:43.751Z,85.19
2018-06-01T08:16:44.501Z,85.67
2018-06-01T08:17:44.073Z,86.25
2018-06-01T08:18:44.651Z,85.86
2018-06-01T08:19:44.773Z,85.19
2018-06-01T08:20:44.843Z,85.67
2018-06-01T08:21:45.605Z,85.67
2018-06-01T08:22:44.549Z,85.67
2018-06-01T08:23:45.192Z,85.09
2018-06-01T08:24:45.540Z,84.94
2018-06-01T08:25:45.743Z,84.27
2018-06-01T08:26:45.341Z,84.17
2018-06-01T08:27:45.316Z,83.69
2018-06-01T08:28:45.488Z,82.92
2018-06-01T08:29:45.673Z,82.97
2018-06-01T08:30:45.851Z,83.45
2018-06-01T08:31:46.063Z,83.55
2018-06-01T08:32:46.229Z,83.74
2018-06-01T08:33:46.409Z,84.22
2018-06-01T08:34:46.701Z,84.42
2018-06-01T08:35:46.773Z,84.22
2018-06-01T08:36:46.952Z,85.03
2018-06-01T08:37:50.833Z,85.13
2018-06-01T08:38:48.561Z,83.88
2018-06-01T08:39:48.339Z,83.69
2018-06-01T08:40:48.917Z,83.83
2018-06-01T08:41:47.798Z,83.98
2018-06-01T08:42:52.670Z,82.86
2018-06-01T08:43:48.236Z,82.43
2018-06-01T08:44:48.524Z,82.24
2018-06-01T08:45:50.951Z,82.05
2018-06-01T08:46:48.771Z,81.90
2018-06-01T08:47:48.991Z,81.70
2018-06-01T08:48:49.179Z,81.80
2018-06-01T08:49:49.347Z,81.85
2018-06-01T08:50:49.732Z,81.18
2018-06-01T08:51:50.002Z,81.18
2018-06-01T08:52:49.933Z,81.85
2018-06-01T08:53:50.834Z,81.09
2018-06-01T08:54:51.344Z,81.18
2018-06-01T08:55:51.291Z,81.66
2018-06-01T08:56:52.180Z,81.66
2018-06-01T08:57:51.018Z,80.69
2018-06-01T08:58:51.484Z,81.18
2018-06-01T08:59:51.036Z,81.57
2018-06-01T09:00:51.224Z,81.18
2018-06-01T09:01:51.852Z,82.05
2018-06-01T09:02:52.112Z,81.76
2018-06-01T09:03:52.696Z,81.76
2018-06-01T09:04:52.602Z,81.57
2018-06-01T09:05:52.812Z,80.99
2018-06-01T09:06:52.369Z,81.37
2018-06-01T09:07:52.552Z,80.99
2018-06-01T09:08:52.717Z,80.22
2018-06-01T09:09:52.947Z,80.31
2018-06-01T09:10:53.010Z,80.74
2018-06-01T09:11:53.186Z,80.64
2018-06-01T09:12:53.404Z,80.45
2018-06-01T09:13:53.558Z,80.64
2018-06-01T09:14:53.746Z,80.58
2018-06-01T09:15:53.918Z,79.72
2018-06-01T09:16:54.103Z,79.43
2018-06-01T09:17:54.287Z,79.04
2018-06-01T09:18:54.474Z,78.94
2018-06-01T09:19:54.649Z,78.17
2018-06-01T09:20:54.827Z,77.59
2018-06-01T09:21:55.003Z,77.92
2018-06-01T09:22:55.181Z,77.83
2018-06-01T09:23:55.363Z,77.63
2018-06-01T09:24:55.553Z,77.21
2018-06-01T09:25:55.725Z,77.53
2018-06-01T09:26:55.901Z,77.25
2018-06-01T09:27:56.089Z,77.63
2018-06-01T09:28:56.272Z,77.44
2018-06-01T09:29:56.506Z,76.57
2018-06-01T09:30:56.614Z,76.72
2018-06-01T09:31:56.820Z,76.92
2018-06-01T09:32:57.062Z,77.65
2018-06-01T09:33:57.961Z,77.94
2018-06-01T09:34:57.311Z,78.13
2018-06-01T09:35:57.373Z,78.13
2018-06-01T09:36:57.601Z,78.13
2018-06-01T09:37:57.788Z,78.13
2018-06-01T09:38:57.983Z,78.66
2018-06-01T09:39:58.165Z,77.94
2018-06-01T09:40:58.417Z,77.75
2018-06-01T09:41:58.496Z,78.23
2018-06-01T09:42:58.669Z,78.17
2018-06-01T09:43:58.848Z,78.17
2018-06-01T09:44:59.029Z,77.78
2018-06-01T09:45:59.217Z,77.69
2018-06-01T09:46:59.396Z,77.94
2018-06-01T09:47:59.597Z,77.94
2018-06-01T09:48:59.776Z,78.13
2018-06-01T09:49:59.959Z,77.65
2018-06-01T09:51:00.148Z,77.21
2018-06-01T09:52:00.331Z,77.30
2018-06-01T09:53:00.510Z,76.67
2018-06-01T09:54:00.695Z,76.80
2018-06-01T09:55:00.874Z,75.99
2018-06-01T09:56:01.085Z,75.22
2018-06-01T09:57:01.276Z,75.12
2018-06-01T09:58:01.461Z,75.12
2018-06-01T09:59:01.890Z,73.94
2018-06-01T10:00:01.871Z,74.62
2018-06-01T10:01:02.110Z,74.00
2018-06-01T10:02:02.182Z,73.42
2018-06-01T10:03:02.349Z,74.38
2018-06-01T10:04:02.538Z,74.77
2018-06-01T10:05:06.289Z,75.45
2018-06-01T10:06:04.488Z,75.84
2018-06-01T10:07:04.338Z,75.74
2018-06-01T10:08:04.284Z,75.70
2018-06-01T10:09:05.261Z,76.12
2018-06-01T10:10:03.642Z,75.93
2018-06-01T10:11:03.840Z,76.32
2018-06-01T10:12:05.326Z,76.37
2018-06-01T10:13:04.782Z,76.32
2018-06-01T10:14:05.126Z,75.74
2018-06-01T10:15:04.611Z,76.32
2018-06-01T10:16:04.655Z,75.12
2018-06-01T10:17:04.832Z,74.83
2018-06-01T10:18:05.021Z,75.22
2018-06-01T10:19:05.210Z,75.02
2018-06-01T10:20:05.385Z,74.83
2018-06-01T10:21:05.574Z,75.31
2018-06-01T10:22:05.747Z,75.26
2018-06-01T10:23:05.992Z,74.93
2018-06-01T10:24:06.054Z,75.06
2018-06-01T10:25:06.240Z,74.96
2018-06-01T10:26:06.421Z,75.35
2018-06-01T10:27:06.602Z,74.38
2018-06-01T10:28:06.784Z,74.87
2018-06-01T10:29:06.970Z,74.44
2018-06-01T10:30:07.151Z,75.02
2018-06-01T10:31:07.333Z,74.83
2018-06-01T10:32:07.574Z,74.44
2018-06-01T10:33:07.635Z,73.80
2018-06-01T10:34:07.832Z,73.52
2018-06-01T10:35:08.017Z,74.00
2018-06-01T10:36:11.299Z,73.26
2018-06-01T10:37:12.171Z,73.78
2018-06-01T10:38:08.582Z,73.59
2018-06-01T10:39:08.808Z,71.78
2018-06-01T10:40:08.954Z,70.34
2018-06-01T10:41:09.160Z,69.89
2018-06-01T10:42:09.313Z,70.98
2018-06-01T10:43:09.494Z,68.76
2018-06-01T10:44:09.681Z,67.44
2018-06-01T10:45:09.890Z,67.14
2018-06-01T10:46:10.039Z,67.76
2018-06-01T10:47:10.227Z,67.08
2018-06-01T10:48:10.415Z,66.20
2018-06-01T10:49:10.638Z,65.14
2018-06-01T10:50:10.819Z,64.82
2018-06-01T10:51:10.999Z,64.85
2018-06-01T10:52:11.198Z,63.98
2018-06-01T10:53:11.375Z,64.17
2018-06-01T10:54:11.567Z,64.17
2018-06-01T10:55:11.820Z,64.78
2018-06-01T10:56:12.012Z,64.40
2018-06-01T10:57:12.189Z,67.24
2018-06-01T10:58:12.396Z,64.23
2018-06-01T10:59:12.638Z,64.56
2018-06-01T11:00:12.836Z,62.55
2018-06-01T11:01:13.902Z,61.00
2018-06-01T11:02:13.445Z,60.51
2018-06-01T11:03:13.427Z,60.51
2018-06-01T11:04:13.678Z,61.58
2018-06-01T11:05:13.738Z,60.28
2018-06-01T11:06:13.923Z,61.42
2018-06-01T11:07:14.294Z,61.98
2018-06-01T11:08:14.285Z,61.49
2018-06-01T11:09:14.474Z,62.46
2018-06-01T11:10:14.666Z,61.88
2018-06-01T11:11:14.906Z,62.13
2018-06-01T11:12:15.051Z,63.72
2018-06-01T11:13:15.251Z,63.82
2018-06-01T11:14:15.430Z,63.75
2018-06-01T11:15:15.637Z,63.07
2018-06-01T11:16:15.840Z,62.88
2018-06-01T11:17:16.031Z,63.01
2018-06-01T11:18:16.256Z,63.49
2018-06-01T11:19:16.417Z,62.94
2018-06-01T11:20:16.602Z,61.77
2018-06-01T11:21:16.813Z,60.38
2018-06-01T11:22:16.970Z,60.45
2018-06-01T11:23:17.163Z,61.29
2018-06-01T11:24:17.350Z,62.49
2018-06-01T11:25:17.534Z,62.19
2018-06-01T11:26:17.723Z,61.29
2018-06-01T11:27:17.910Z,61.94
2018-06-01T11:28:18.101Z,62.95
2018-06-01T11:29:18.281Z,63.23
2018-06-01T11:30:18.463Z,64.30
2018-06-01T11:31:18.643Z,64.50
2018-06-01T11:32:18.876Z,63.33
2018-06-01T11:33:19.015Z,62.85
2018-06-01T11:34:21.131Z,62.55
2018-06-01T11:35:19.370Z,63.40
2018-06-01T11:36:19.558Z,62.95
2018-06-01T11:37:19.733Z,63.30
2018-06-01T11:38:19.962Z,64.47
2018-06-01T11:39:20.095Z,63.95
2018-06-01T11:40:20.274Z,63.75
2018-06-01T11:41:20.468Z,64.14
2018-06-01T11:42:20.649Z,63.75
2018-06-01T11:43:20.834Z,64.04
2018-06-01T11:44:21.019Z,64.82
2018-06-01T11:45:21.209Z,65.30
2018-06-01T11:46:21.417Z,64.92
2018-06-01T11:47:21.600Z,65.59
2018-06-01T11:48:21.782Z,65.63
2018-06-01T11:49:21.962Z,64.27
2018-06-01T11:50:22.142Z,64.43
2018-06-01T11:51:22.349Z,64.14
2018-06-01T11:52:22.508Z,64.04
2018-06-01T11:53:22.694Z,66.02
2018-06-01T11:54:22.907Z,64.20
2018-06-01T11:55:23.083Z,62.26
2018-06-01T11:56:23.276Z,61.49
2018-06-01T11:57:23.512Z,61.00
2018-06-01T11:58:23.650Z,61.78
2018-06-01T11:59:23.828Z,62.85
2018-06-01T12:00:24.009Z,62.55
2018-06-01T12:01:24.191Z,64.30
2018-06-01T12:02:24.415Z,62.46
2018-06-01T12:03:24.602Z,60.97
2018-06-01T12:04:24.792Z,61.91
2018-06-01T12:05:24.994Z,62.30
2018-06-01T12:06:25.158Z,63.27
2018-06-01T12:07:25.380Z,63.56
2018-06-01T12:08:25.569Z,63.56
2018-06-01T12:09:25.761Z,64.07
2018-06-01T12:10:25.949Z,64.75
2018-06-01T12:11:26.124Z,64.07
2018-06-01T12:12:26.300Z,64.07
2018-06-01T12:13:26.481Z,63.98
2018-06-01T12:14:26.666Z,63.88
2018-06-01T12:15:26.847Z,63.33
2018-06-01T12:16:27.263Z,63.10
2018-06-01T12:17:27.229Z,62.04
2018-06-01T12:18:27.421Z,61.62
2018-06-01T12:19:27.656Z,62.20
2018-06-01T12:20:27.829Z,61.85
2018-06-01T12:21:28.012Z,61.55
2018-06-01T12:22:28.250Z,62.52
2018-06-01T12:23:28.398Z,62.82
2018-06-01T12:24:28.587Z,62.43
2018-06-01T12:25:28.790Z,62.43
2018-06-01T12:26:28.973Z,63.40
2018-06-01T12:27:29.164Z,63.10
2018-06-01T12:28:29.343Z,63.40
2018-06-01T12:29:29.562Z,63.27
2018-06-01T12:30:29.771Z,63.78
2018-06-01T12:31:29.938Z,63.78
2018-06-01T12:32:30.127Z,63.88
2018-06-01T12:33:30.313Z,63.10
2018-06-01T12:34:30.499Z,62.82
2018-06-01T12:35:30.686Z,62.59
2018-06-01T12:36:30.861Z,63.56
2018-06-01T12:37:31.071Z,62.59
2018-06-01T12:38:32.163Z,63.17
2018-06-01T12:39:32.860Z,63.37
2018-06-01T12:40:32.969Z,63.85
2018-06-01T12:41:34.156Z,64.82
2018-06-01T12:42:33.477Z,65.01
2018-06-01T12:43:31.912Z,65.47
2018-06-01T12:44:33.127Z,64.40
2018-06-01T12:45:33.997Z,65.56
2018-06-01T12:46:32.372Z,65.40
2018-06-01T12:47:35.569Z,66.27
2018-06-01T12:48:32.806Z,65.98
2018-06-01T12:49:32.992Z,65.40
2018-06-01T12:50:33.170Z,64.43
2018-06-01T12:51:33.352Z,64.24
2018-06-01T12:52:33.538Z,64.62
2018-06-01T12:53:33.736Z,64.20
2018-06-01T12:54:33.916Z,64.59